sensor_id;sensor_type;location;lat;lon;timestamp;temperature;humidity
11559;DHT22;5835;42.930;25.178;2022-08-21T00:58:06;19.50;99.90
11559;DHT22;5835;42.930;25.178;2022-08-21T01:00:36;20.30;99.90
11559;DHT22;5835;42.930;25.178;2022-08-21T01:03:07;20.20;99.90
11559;DHT22;5835;42.930;25.178;2022-08-21T01:05:35;20.10;99.90
11559;DHT22;5835;42.930;25.178;2022-08-21T01:08:03;20.10;99.90
11559;DHT22;5835;42.930;25.178;2022-08-21T01:10:32;20.20;99.90
11559;DHT22;5835;42.930;25.178;2022-08-21T01:13:00;20.20;99.90
11559;DHT22;5835;42.930;25.178;2022-08-21T01:15:33;20.20;99.90
11559;DHT22;5835;42.930;25.178;2022-08-21T01:18:02;20.20;99.90
11559;DHT22;5835;42.930;25.178;2022-08-21T01:20:30;20.20;99.90
11559;DHT22;5835;42.930;25.178;2022-08-21T01:22:59;20.20;99.90
11559;DHT22;5835;42.930;25.178;2022-08-21T01:25:27;20.20;99.90
11559;DHT22;5835;42.930;25.178;2022-08-21T01:27:55;20.20;99.90
11559;DHT22;5835;42.930;25.178;2022-08-21T01:30:26;20.20;99.90
11559;DHT22;5835;42.930;25.178;2022-08-21T01:32:55;20.30;99.90
11559;DHT22;5835;42.930;25.178;2022-08-21T01:35:26;20.20;99.90
11559;DHT22;5835;42.930;25.178;2022-08-21T01:37:53;20.30;99.90
11559;DHT22;5835;42.930;25.178;2022-08-21T01:40:23;20.20;99.90
11559;DHT22;5835;42.930;25.178;2022-08-21T01:42:50;20.00;99.90
11559;DHT22;5835;42.930;25.178;2022-08-21T01:45:19;19.80;99.90
11559;DHT22;5835;42.930;25.178;2022-08-21T01:47:47;19.80;99.90
11559;DHT22;5835;42.930;25.178;2022-08-21T01:50:18;19.80;99.90
11559;DHT22;5835;42.930;25.178;2022-08-21T01:52:46;19.70;99.90
11559;DHT22;5835;42.930;25.178;2022-08-21T01:55:15;19.60;99.90
11559;DHT22;5835;42.930;25.178;2022-08-21T01:57:45;19.60;99.90
11559;DHT22;5835;42.930;25.178;2022-08-21T02:00:16;19.70;99.90
11559;DHT22;5835;42.930;25.178;2022-08-21T02:02:44;19.70;99.90
11559;DHT22;5835;42.930;25.178;2022-08-21T02:05:12;19.60;99.90
11559;DHT22;5835;42.930;25.178;2022-08-21T02:07:43;19.70;99.90
11559;DHT22;5835;42.930;25.178;2022-08-21T02:10:13;19.50;99.90
11559;DHT22;5835;42.930;25.178;2022-08-21T02:12:41;19.40;99.90
11559;DHT22;5835;42.930;25.178;2022-08-21T02:15:10;19.40;99.90
11559;DHT22;5835;42.930;25.178;2022-08-21T02:17:39;19.30;99.90
11559;DHT22;5835;42.930;25.178;2022-08-21T02:20:09;19.40;99.90
11559;DHT22;5835;42.930;25.178;2022-08-21T02:22:37;19.30;99.90
11559;DHT22;5835;42.930;25.178;2022-08-21T02:25:06;19.30;99.90
11559;DHT22;5835;42.930;25.178;2022-08-21T02:27:39;19.20;99.90
11559;DHT22;5835;42.930;25.178;2022-08-21T02:30:11;19.20;99.90
11559;DHT22;5835;42.930;25.178;2022-08-21T02:32:40;19.20;99.90
11559;DHT22;5835;42.930;25.178;2022-08-21T02:35:08;19.20;99.90
11559;DHT22;5835;42.930;25.178;2022-08-21T02:37:43;19.10;99.90
11559;DHT22;5835;42.930;25.178;2022-08-21T02:40:12;19.20;99.90
11559;DHT22;5835;42.930;25.178;2022-08-21T02:42:39;19.20;99.90
11559;DHT22;5835;42.930;25.178;2022-08-21T02:45:08;19.10;99.90
11559;DHT22;5835;42.930;25.178;2022-08-21T02:47:37;19.10;99.90
11559;DHT22;5835;42.930;25.178;2022-08-21T02:50:06;19.20;99.90
11559;DHT22;5835;42.930;25.178;2022-08-21T02:52:33;19.20;99.90
11559;DHT22;5835;42.930;25.178;2022-08-21T02:55:03;19.30;99.90
11559;DHT22;5835;42.930;25.178;2022-08-21T02:57:31;19.30;99.90
11559;DHT22;5835;42.930;25.178;2022-08-21T02:59:59;19.30;99.90
11559;DHT22;5835;42.930;25.178;2022-08-21T03:02:26;19.40;99.90
11559;DHT22;5835;42.930;25.178;2022-08-21T03:04:55;19.30;99.90
11559;DHT22;5835;42.930;25.178;2022-08-21T03:07:23;19.30;99.90
11559;DHT22;5835;42.930;25.178;2022-08-21T03:09:51;19.30;99.90
11559;DHT22;5835;42.930;25.178;2022-08-21T03:12:19;19.30;99.90
11559;DHT22;5835;42.930;25.178;2022-08-21T03:14:47;19.40;99.90
11559;DHT22;5835;42.930;25.178;2022-08-21T03:17:15;19.30;99.90
11559;DHT22;5835;42.930;25.178;2022-08-21T03:19:43;19.20;99.90
11559;DHT22;5835;42.930;25.178;2022-08-21T03:22:11;19.10;99.90
11559;DHT22;5835;42.930;25.178;2022-08-21T03:24:39;19.10;99.90
11559;DHT22;5835;42.930;25.178;2022-08-21T03:27:06;19.10;99.90
11559;DHT22;5835;42.930;25.178;2022-08-21T03:29:34;19.20;99.90
11559;DHT22;5835;42.930;25.178;2022-08-21T03:32:02;19.20;99.90
11559;DHT22;5835;42.930;25.178;2022-08-21T03:34:29;19.20;99.90
11559;DHT22;5835;42.930;25.178;2022-08-21T03:36:57;19.10;99.90
11559;DHT22;5835;42.930;25.178;2022-08-21T03:39:26;19.20;99.90
11559;DHT22;5835;42.930;25.178;2022-08-21T03:41:54;19.40;99.90
11559;DHT22;5835;42.930;25.178;2022-08-21T03:44:21;19.50;99.90
11559;DHT22;5835;42.930;25.178;2022-08-21T03:46:49;19.40;99.90
11559;DHT22;5835;42.930;25.178;2022-08-21T03:49:16;19.40;99.90
11559;DHT22;5835;42.930;25.178;2022-08-21T03:51:44;19.20;99.90
11559;DHT22;5835;42.930;25.178;2022-08-21T03:54:11;19.30;99.90
11559;DHT22;5835;42.930;25.178;2022-08-21T03:56:40;19.50;99.90
11559;DHT22;5835;42.930;25.178;2022-08-21T03:59:08;19.30;99.90
11559;DHT22;5835;42.930;25.178;2022-08-21T04:01:36;19.40;99.90
11559;DHT22;5835;42.930;25.178;2022-08-21T04:04:05;19.30;99.90
11559;DHT22;5835;42.930;25.178;2022-08-21T04:06:33;19.20;99.90
11559;DHT22;5835;42.930;25.178;2022-08-21T04:09:01;19.50;99.90
11559;DHT22;5835;42.930;25.178;2022-08-21T04:11:28;19.60;99.90
11559;DHT22;5835;42.930;25.178;2022-08-21T04:13:57;19.70;99.90
11559;DHT22;5835;42.930;25.178;2022-08-21T04:16:25;19.60;99.90
11559;DHT22;5835;42.930;25.178;2022-08-21T04:18:52;19.70;99.90
11559;DHT22;5835;42.930;25.178;2022-08-21T04:21:20;19.90;99.90
11559;DHT22;5835;42.930;25.178;2022-08-21T04:23:47;19.80;99.90
11559;DHT22;5835;42.930;25.178;2022-08-21T04:26:14;19.90;99.90
11559;DHT22;5835;42.930;25.178;2022-08-21T04:28:42;20.00;99.90
11559;DHT22;5835;42.930;25.178;2022-08-21T04:31:11;20.00;99.90
11559;DHT22;5835;42.930;25.178;2022-08-21T04:33:39;20.00;99.90
11559;DHT22;5835;42.930;25.178;2022-08-21T04:36:07;19.90;99.90
11559;DHT22;5835;42.930;25.178;2022-08-21T04:38:35;19.90;99.90
11559;DHT22;5835;42.930;25.178;2022-08-21T04:41:03;19.90;99.90
11559;DHT22;5835;42.930;25.178;2022-08-21T04:43:30;20.20;99.90
11559;DHT22;5835;42.930;25.178;2022-08-21T04:45:58;20.10;99.90
11559;DHT22;5835;42.930;25.178;2022-08-21T04:48:27;20.10;99.90
11559;DHT22;5835;42.930;25.178;2022-08-21T04:50:57;19.90;99.90
11559;DHT22;5835;42.930;25.178;2022-08-21T04:53:27;19.90;99.90
11559;DHT22;5835;42.930;25.178;2022-08-21T04:56:02;19.90;99.90
11559;DHT22;5835;42.930;25.178;2022-08-21T04:58:31;20.00;99.90
11559;DHT22;5835;42.930;25.178;2022-08-21T05:01:00;19.90;99.90
11559;DHT22;5835;42.930;25.178;2022-08-21T05:03:32;19.80;99.90
11559;DHT22;5835;42.930;25.178;2022-08-21T05:06:00;19.80;99.90
11559;DHT22;5835;42.930;25.178;2022-08-21T05:08:28;20.00;99.90
11559;DHT22;5835;42.930;25.178;2022-08-21T05:10:56;20.10;99.90
11559;DHT22;5835;42.930;25.178;2022-08-21T05:13:24;20.10;99.90
11559;DHT22;5835;42.930;25.178;2022-08-21T05:15:52;20.20;99.90
11559;DHT22;5835;42.930;25.178;2022-08-21T05:18:19;20.20;99.90
11559;DHT22;5835;42.930;25.178;2022-08-21T05:20:48;20.20;99.90
11559;DHT22;5835;42.930;25.178;2022-08-21T05:23:16;20.20;99.90
11559;DHT22;5835;42.930;25.178;2022-08-21T05:25:44;20.30;99.90
11559;DHT22;5835;42.930;25.178;2022-08-21T05:28:12;20.40;99.90
11559;DHT22;5835;42.930;25.178;2022-08-21T05:30:39;20.30;99.90
11559;DHT22;5835;42.930;25.178;2022-08-21T05:33:07;20.40;99.90
11559;DHT22;5835;42.930;25.178;2022-08-21T05:35:35;20.50;99.90
11559;DHT22;5835;42.930;25.178;2022-08-21T05:38:05;20.40;99.90
11559;DHT22;5835;42.930;25.178;2022-08-21T05:40:33;20.40;99.90
11559;DHT22;5835;42.930;25.178;2022-08-21T05:43:01;20.30;99.90
11559;DHT22;5835;42.930;25.178;2022-08-21T05:45:30;20.30;99.90
11559;DHT22;5835;42.930;25.178;2022-08-21T05:48:05;20.40;99.90
11559;DHT22;5835;42.930;25.178;2022-08-21T05:50:33;20.20;99.90
11559;DHT22;5835;42.930;25.178;2022-08-21T05:53:01;20.20;99.90
11559;DHT22;5835;42.930;25.178;2022-08-21T05:55:30;20.20;99.90
11559;DHT22;5835;42.930;25.178;2022-08-21T05:57:58;20.20;99.90
11559;DHT22;5835;42.930;25.178;2022-08-21T06:00:26;20.50;99.90
11559;DHT22;5835;42.930;25.178;2022-08-21T06:02:53;20.60;99.90
11559;DHT22;5835;42.930;25.178;2022-08-21T06:05:21;20.70;99.90
11559;DHT22;5835;42.930;25.178;2022-08-21T06:07:49;20.70;99.90
11559;DHT22;5835;42.930;25.178;2022-08-21T06:10:17;20.60;99.90
11559;DHT22;5835;42.930;25.178;2022-08-21T06:12:46;20.60;99.90
11559;DHT22;5835;42.930;25.178;2022-08-21T06:15:14;20.50;99.90
11559;DHT22;5835;42.930;25.178;2022-08-21T06:17:41;20.40;99.90
11559;DHT22;5835;42.930;25.178;2022-08-21T06:20:10;20.60;99.90
11559;DHT22;5835;42.930;25.178;2022-08-21T06:22:37;20.70;99.90
11559;DHT22;5835;42.930;25.178;2022-08-21T06:25:06;20.60;99.90
11559;DHT22;5835;42.930;25.178;2022-08-21T06:27:35;20.60;99.90
11559;DHT22;5835;42.930;25.178;2022-08-21T06:30:06;20.60;99.90
11559;DHT22;5835;42.930;25.178;2022-08-21T06:32:34;20.60;99.90
11559;DHT22;5835;42.930;25.178;2022-08-21T06:35:02;20.90;99.90
11559;DHT22;5835;42.930;25.178;2022-08-21T06:37:30;21.10;99.90
11559;DHT22;5835;42.930;25.178;2022-08-21T06:39:58;21.20;99.90
11559;DHT22;5835;42.930;25.178;2022-08-21T06:42:26;21.00;99.90
11559;DHT22;5835;42.930;25.178;2022-08-21T06:44:54;20.90;99.90
11559;DHT22;5835;42.930;25.178;2022-08-21T06:47:23;20.90;99.90
11559;DHT22;5835;42.930;25.178;2022-08-21T06:49:51;21.00;99.90
11559;DHT22;5835;42.930;25.178;2022-08-21T06:52:18;20.90;99.90
11559;DHT22;5835;42.930;25.178;2022-08-21T06:54:46;21.00;99.90
11559;DHT22;5835;42.930;25.178;2022-08-21T06:57:13;21.00;99.90
11559;DHT22;5835;42.930;25.178;2022-08-21T06:59:41;21.10;99.90
11559;DHT22;5835;42.930;25.178;2022-08-21T07:02:09;21.10;99.90
11559;DHT22;5835;42.930;25.178;2022-08-21T07:04:38;21.10;99.90
11559;DHT22;5835;42.930;25.178;2022-08-21T07:22:21;21.00;99.90
11559;DHT22;5835;42.930;25.178;2022-08-21T07:24:49;21.80;99.90
11559;DHT22;5835;42.930;25.178;2022-08-21T07:27:16;21.80;99.90
11559;DHT22;5835;42.930;25.178;2022-08-21T07:29:44;21.60;99.90
11559;DHT22;5835;42.930;25.178;2022-08-21T07:32:11;21.80;99.90
11559;DHT22;5835;42.930;25.178;2022-08-21T07:34:40;21.60;99.90
11559;DHT22;5835;42.930;25.178;2022-08-21T07:37:08;21.50;99.90
11559;DHT22;5835;42.930;25.178;2022-08-21T07:39:37;21.40;99.90
11559;DHT22;5835;42.930;25.178;2022-08-21T07:42:05;21.30;99.90
11559;DHT22;5835;42.930;25.178;2022-08-21T07:44:33;21.30;99.90
11559;DHT22;5835;42.930;25.178;2022-08-21T07:47:01;21.20;99.90
11559;DHT22;5835;42.930;25.178;2022-08-21T07:49:29;21.10;99.90
11559;DHT22;5835;42.930;25.178;2022-08-21T07:51:57;21.40;99.90
11559;DHT22;5835;42.930;25.178;2022-08-21T07:54:25;21.20;99.90
11559;DHT22;5835;42.930;25.178;2022-08-21T07:56:55;21.20;99.90
11559;DHT22;5835;42.930;25.178;2022-08-21T07:59:22;20.80;99.90
11559;DHT22;5835;42.930;25.178;2022-08-21T08:01:50;21.00;99.90
11559;DHT22;5835;42.930;25.178;2022-08-21T08:04:17;20.90;99.90
11559;DHT22;5835;42.930;25.178;2022-08-21T08:06:45;20.90;99.90
11559;DHT22;5835;42.930;25.178;2022-08-21T08:09:13;21.10;99.90
11559;DHT22;5835;42.930;25.178;2022-08-21T08:11:42;21.10;99.90
11559;DHT22;5835;42.930;25.178;2022-08-21T08:14:12;21.10;99.90
11559;DHT22;5835;42.930;25.178;2022-08-21T08:16:39;21.20;99.90
11559;DHT22;5835;42.930;25.178;2022-08-21T08:19:07;21.30;99.90
11559;DHT22;5835;42.930;25.178;2022-08-21T08:21:35;21.20;99.90
11559;DHT22;5835;42.930;25.178;2022-08-21T08:24:04;21.50;99.90
11559;DHT22;5835;42.930;25.178;2022-08-21T08:26:32;21.60;99.90
11559;DHT22;5835;42.930;25.178;2022-08-21T08:29:00;21.60;99.90
11559;DHT22;5835;42.930;25.178;2022-08-21T08:31:29;21.70;99.90
11559;DHT22;5835;42.930;25.178;2022-08-21T08:33:56;21.50;99.90
11559;DHT22;5835;42.930;25.178;2022-08-21T08:36:32;21.30;99.90
11559;DHT22;5835;42.930;25.178;2022-08-21T08:39:01;21.20;99.90
11559;DHT22;5835;42.930;25.178;2022-08-21T08:41:29;21.40;99.90
11559;DHT22;5835;42.930;25.178;2022-08-21T08:44:01;21.60;99.90
11559;DHT22;5835;42.930;25.178;2022-08-21T08:46:36;21.60;99.90
11559;DHT22;5835;42.930;25.178;2022-08-21T08:49:10;21.70;99.90
11559;DHT22;5835;42.930;25.178;2022-08-21T08:51:44;22.10;99.90
11559;DHT22;5835;42.930;25.178;2022-08-21T08:54:17;22.60;99.90
11559;DHT22;5835;42.930;25.178;2022-08-21T08:56:46;22.20;99.90
11559;DHT22;5835;42.930;25.178;2022-08-21T08:59:20;22.10;99.90
11559;DHT22;5835;42.930;25.178;2022-08-21T09:01:52;22.20;99.90
11559;DHT22;5835;42.930;25.178;2022-08-21T09:04:23;22.40;99.90
11559;DHT22;5835;42.930;25.178;2022-08-21T09:07:01;22.50;99.90
11559;DHT22;5835;42.930;25.178;2022-08-21T09:09:38;22.50;99.90
11559;DHT22;5835;42.930;25.178;2022-08-21T09:12:16;22.20;99.90
11559;DHT22;5835;42.930;25.178;2022-08-21T09:14:56;22.80;99.90
11559;DHT22;5835;42.930;25.178;2022-08-21T09:17:37;23.10;99.90
11559;DHT22;5835;42.930;25.178;2022-08-21T09:20:16;22.80;99.90
11559;DHT22;5835;42.930;25.178;2022-08-21T09:22:51;22.70;99.90
11559;DHT22;5835;42.930;25.178;2022-08-21T09:25:24;23.00;99.90
11559;DHT22;5835;42.930;25.178;2022-08-21T09:27:53;22.80;99.90
11559;DHT22;5835;42.930;25.178;2022-08-21T09:30:25;23.20;99.90
11559;DHT22;5835;42.930;25.178;2022-08-21T09:32:55;23.70;99.90
11559;DHT22;5835;42.930;25.178;2022-08-21T09:35:23;23.40;99.90
11559;DHT22;5835;42.930;25.178;2022-08-21T09:37:54;23.20;99.90
11559;DHT22;5835;42.930;25.178;2022-08-21T09:40:39;23.70;99.90
11559;DHT22;5835;42.930;25.178;2022-08-21T09:43:18;23.70;99.90
11559;DHT22;5835;42.930;25.178;2022-08-21T09:45:48;23.90;99.90
11559;DHT22;5835;42.930;25.178;2022-08-21T09:48:20;24.20;99.90
11559;DHT22;5835;42.930;25.178;2022-08-21T09:50:49;24.70;99.90
11559;DHT22;5835;42.930;25.178;2022-08-21T09:53:19;24.60;99.90
11559;DHT22;5835;42.930;25.178;2022-08-21T09:55:51;24.70;99.90
11559;DHT22;5835;42.930;25.178;2022-08-21T09:58:37;24.30;99.90
11559;DHT22;5835;42.930;25.178;2022-08-21T10:01:06;24.40;99.90
11559;DHT22;5835;42.930;25.178;2022-08-21T10:03:36;24.80;99.90
11559;DHT22;5835;42.930;25.178;2022-08-21T10:06:05;24.70;99.90
11559;DHT22;5835;42.930;25.178;2022-08-21T10:08:36;24.70;99.90
11559;DHT22;5835;42.930;25.178;2022-08-21T10:11:07;24.80;99.90
11559;DHT22;5835;42.930;25.178;2022-08-21T10:13:44;24.80;99.90
11559;DHT22;5835;42.930;25.178;2022-08-21T10:16:25;24.50;99.90
11559;DHT22;5835;42.930;25.178;2022-08-21T10:19:05;24.30;99.90
11559;DHT22;5835;42.930;25.178;2022-08-21T10:21:42;23.90;99.90
11559;DHT22;5835;42.930;25.178;2022-08-21T10:24:18;23.70;99.90
11559;DHT22;5835;42.930;25.178;2022-08-21T10:26:57;23.90;99.90
11559;DHT22;5835;42.930;25.178;2022-08-21T10:29:41;23.90;99.90
11559;DHT22;5835;42.930;25.178;2022-08-21T10:32:18;24.20;99.90
11559;DHT22;5835;42.930;25.178;2022-08-21T10:34:56;24.40;99.90
11559;DHT22;5835;42.930;25.178;2022-08-21T10:37:35;24.50;99.90
11559;DHT22;5835;42.930;25.178;2022-08-21T10:40:12;25.00;99.90
11559;DHT22;5835;42.930;25.178;2022-08-21T10:42:52;25.00;99.90
11559;DHT22;5835;42.930;25.178;2022-08-21T10:45:36;24.80;99.90
11559;DHT22;5835;42.930;25.178;2022-08-21T10:48:07;24.70;99.90
11559;DHT22;5835;42.930;25.178;2022-08-21T10:50:42;25.20;99.90
11559;DHT22;5835;42.930;25.178;2022-08-21T10:53:45;25.20;99.90
11559;DHT22;5835;42.930;25.178;2022-08-21T10:56:19;25.50;99.90
11559;DHT22;5835;42.930;25.178;2022-08-21T10:58:58;25.40;99.90
11559;DHT22;5835;42.930;25.178;2022-08-21T11:01:29;25.80;99.90
11559;DHT22;5835;42.930;25.178;2022-08-21T11:04:11;26.30;99.90
11559;DHT22;5835;42.930;25.178;2022-08-21T11:06:46;26.20;99.90
11559;DHT22;5835;42.930;25.178;2022-08-21T11:09:18;26.50;99.90
11559;DHT22;5835;42.930;25.178;2022-08-21T11:11:50;26.60;99.90
11559;DHT22;5835;42.930;25.178;2022-08-21T11:14:26;26.70;99.90
11559;DHT22;5835;42.930;25.178;2022-08-21T11:17:02;26.90;99.90
11559;DHT22;5835;42.930;25.178;2022-08-21T11:19:33;26.60;99.90
11559;DHT22;5835;42.930;25.178;2022-08-21T11:22:08;26.70;99.90
11559;DHT22;5835;42.930;25.178;2022-08-21T11:24:42;27.20;99.90
11559;DHT22;5835;42.930;25.178;2022-08-21T11:27:20;28.00;99.90
11559;DHT22;5835;42.930;25.178;2022-08-21T11:29:51;27.90;99.90
11559;DHT22;5835;42.930;25.178;2022-08-21T11:32:37;27.20;99.90
11559;DHT22;5835;42.930;25.178;2022-08-21T11:35:14;26.30;99.90
11559;DHT22;5835;42.930;25.178;2022-08-21T11:37:57;26.20;99.90
11559;DHT22;5835;42.930;25.178;2022-08-21T11:40:44;26.60;99.90
11559;DHT22;5835;42.930;25.178;2022-08-21T11:43:20;27.40;99.90
11559;DHT22;5835;42.930;25.178;2022-08-21T11:45:53;27.40;99.90
11559;DHT22;5835;42.930;25.178;2022-08-21T11:48:35;26.80;99.90
11559;DHT22;5835;42.930;25.178;2022-08-21T11:51:09;26.90;99.90
11559;DHT22;5835;42.930;25.178;2022-08-21T11:53:44;26.50;99.90
11559;DHT22;5835;42.930;25.178;2022-08-21T11:56:21;26.30;99.90
11559;DHT22;5835;42.930;25.178;2022-08-21T11:58:52;26.60;99.90
11559;DHT22;5835;42.930;25.178;2022-08-21T12:01:24;26.90;99.90
11559;DHT22;5835;42.930;25.178;2022-08-21T12:03:56;26.50;99.90
11559;DHT22;5835;42.930;25.178;2022-08-21T12:06:30;26.60;99.90
11559;DHT22;5835;42.930;25.178;2022-08-21T12:09:03;27.30;99.90
11559;DHT22;5835;42.930;25.178;2022-08-21T12:11:31;27.50;99.90
11559;DHT22;5835;42.930;25.178;2022-08-21T12:14:10;26.90;99.90
11559;DHT22;5835;42.930;25.178;2022-08-21T12:16:40;27.60;99.90
11559;DHT22;5835;42.930;25.178;2022-08-21T12:19:10;27.80;99.90
11559;DHT22;5835;42.930;25.178;2022-08-21T12:21:59;27.80;99.90
11559;DHT22;5835;42.930;25.178;2022-08-21T12:24:37;28.30;99.90
11559;DHT22;5835;42.930;25.178;2022-08-21T12:27:26;28.60;99.90
11559;DHT22;5835;42.930;25.178;2022-08-21T12:29:58;29.00;99.90
11559;DHT22;5835;42.930;25.178;2022-08-21T12:32:28;28.80;99.90
11559;DHT22;5835;42.930;25.178;2022-08-21T12:35:02;27.60;99.90
11559;DHT22;5835;42.930;25.178;2022-08-21T12:37:39;27.80;99.90
11559;DHT22;5835;42.930;25.178;2022-08-21T12:40:18;28.60;99.90
11559;DHT22;5835;42.930;25.178;2022-08-21T12:42:50;28.80;99.90
11559;DHT22;5835;42.930;25.178;2022-08-21T12:45:22;29.30;99.90
11559;DHT22;5835;42.930;25.178;2022-08-21T12:47:55;29.60;99.90
11559;DHT22;5835;42.930;25.178;2022-08-21T12:50:31;28.80;99.90
11559;DHT22;5835;42.930;25.178;2022-08-21T12:53:06;28.90;99.90
11559;DHT22;5835;42.930;25.178;2022-08-21T12:55:40;28.40;99.90
11559;DHT22;5835;42.930;25.178;2022-08-21T12:58:17;28.50;99.90
11559;DHT22;5835;42.930;25.178;2022-08-21T13:00:50;28.80;99.90
11559;DHT22;5835;42.930;25.178;2022-08-21T13:03:18;28.30;99.90
11559;DHT22;5835;42.930;25.178;2022-08-21T13:05:47;28.30;99.90
11559;DHT22;5835;42.930;25.178;2022-08-21T13:08:20;29.00;99.90
11559;DHT22;5835;42.930;25.178;2022-08-21T13:10:57;29.10;99.90
11559;DHT22;5835;42.930;25.178;2022-08-21T13:13:27;29.10;99.90
11559;DHT22;5835;42.930;25.178;2022-08-21T13:15:59;29.80;99.90
11559;DHT22;5835;42.930;25.178;2022-08-21T13:18:33;30.20;99.90
11559;DHT22;5835;42.930;25.178;2022-08-21T13:21:07;30.00;99.90
11559;DHT22;5835;42.930;25.178;2022-08-21T13:23:35;29.90;99.90
11559;DHT22;5835;42.930;25.178;2022-08-21T13:26:13;30.00;99.90
11559;DHT22;5835;42.930;25.178;2022-08-21T13:28:41;30.00;99.90
11559;DHT22;5835;42.930;25.178;2022-08-21T13:31:17;30.30;99.90
11559;DHT22;5835;42.930;25.178;2022-08-21T13:33:45;29.00;99.90
11559;DHT22;5835;42.930;25.178;2022-08-21T13:36:16;29.20;99.90
11559;DHT22;5835;42.930;25.178;2022-08-21T13:38:45;28.90;99.90
11559;DHT22;5835;42.930;25.178;2022-08-21T13:41:20;29.40;99.90
11559;DHT22;5835;42.930;25.178;2022-08-21T13:43:56;29.40;99.90
11559;DHT22;5835;42.930;25.178;2022-08-21T13:46:26;28.90;99.90
11559;DHT22;5835;42.930;25.178;2022-08-21T13:48:55;29.30;99.90
11559;DHT22;5835;42.930;25.178;2022-08-21T13:51:23;29.70;99.90
11559;DHT22;5835;42.930;25.178;2022-08-21T13:53:53;29.60;99.90
11559;DHT22;5835;42.930;25.178;2022-08-21T13:56:29;29.40;99.90
11559;DHT22;5835;42.930;25.178;2022-08-21T13:58:58;29.80;99.90
11559;DHT22;5835;42.930;25.178;2022-08-21T14:01:28;30.10;99.90
11559;DHT22;5835;42.930;25.178;2022-08-21T14:04:01;30.40;99.90
11559;DHT22;5835;42.930;25.178;2022-08-21T14:06:34;30.50;99.90
11559;DHT22;5835;42.930;25.178;2022-08-21T14:09:09;30.40;99.90
11559;DHT22;5835;42.930;25.178;2022-08-21T14:11:39;30.10;99.90
11559;DHT22;5835;42.930;25.178;2022-08-21T14:14:19;29.90;99.90
11559;DHT22;5835;42.930;25.178;2022-08-21T14:16:54;30.10;99.90
11559;DHT22;5835;42.930;25.178;2022-08-21T14:19:25;30.00;99.90
11559;DHT22;5835;42.930;25.178;2022-08-21T14:21:53;30.10;99.90
11559;DHT22;5835;42.930;25.178;2022-08-21T14:24:29;30.00;99.90
11559;DHT22;5835;42.930;25.178;2022-08-21T14:27:05;29.90;99.90
11559;DHT22;5835;42.930;25.178;2022-08-21T14:29:43;29.80;99.90
11559;DHT22;5835;42.930;25.178;2022-08-21T14:32:29;29.90;99.90
11559;DHT22;5835;42.930;25.178;2022-08-21T14:34:57;29.90;99.90
11559;DHT22;5835;42.930;25.178;2022-08-21T14:37:25;30.30;99.90
11559;DHT22;5835;42.930;25.178;2022-08-21T14:39:52;30.30;99.90
11559;DHT22;5835;42.930;25.178;2022-08-21T14:42:21;30.20;99.90
11559;DHT22;5835;42.930;25.178;2022-08-21T14:44:50;30.00;99.90
11559;DHT22;5835;42.930;25.178;2022-08-21T14:47:18;29.80;99.90
11559;DHT22;5835;42.930;25.178;2022-08-21T14:49:45;29.60;99.90
11559;DHT22;5835;42.930;25.178;2022-08-21T14:52:13;29.40;99.90
11559;DHT22;5835;42.930;25.178;2022-08-21T14:54:41;29.10;99.90
11559;DHT22;5835;42.930;25.178;2022-08-21T14:57:10;28.90;99.90
11559;DHT22;5835;42.930;25.178;2022-08-21T14:59:39;28.60;99.90
11559;DHT22;5835;42.930;25.178;2022-08-21T15:02:08;28.50;99.90
11559;DHT22;5835;42.930;25.178;2022-08-21T15:04:36;28.20;99.90
11559;DHT22;5835;42.930;25.178;2022-08-21T15:07:04;28.10;99.90
11559;DHT22;5835;42.930;25.178;2022-08-21T15:09:31;27.90;99.90
11559;DHT22;5835;42.930;25.178;2022-08-21T15:12:00;27.80;99.90
11559;DHT22;5835;42.930;25.178;2022-08-21T15:14:30;27.70;99.90
11559;DHT22;5835;42.930;25.178;2022-08-21T15:17:01;27.50;99.90
11559;DHT22;5835;42.930;25.178;2022-08-21T15:19:30;27.50;99.90
11559;DHT22;5835;42.930;25.178;2022-08-21T15:21:57;27.40;99.90
11559;DHT22;5835;42.930;25.178;2022-08-21T15:24:25;27.40;99.90
11559;DHT22;5835;42.930;25.178;2022-08-21T15:26:54;27.30;99.90
11559;DHT22;5835;42.930;25.178;2022-08-21T15:29:22;27.30;99.90
11559;DHT22;5835;42.930;25.178;2022-08-21T15:31:52;27.10;99.90
11559;DHT22;5835;42.930;25.178;2022-08-21T15:34:22;26.80;99.90
11559;DHT22;5835;42.930;25.178;2022-08-21T15:36:50;26.80;99.90
11559;DHT22;5835;42.930;25.178;2022-08-21T15:39:18;26.70;99.90
11559;DHT22;5835;42.930;25.178;2022-08-21T15:41:46;26.60;99.90
11559;DHT22;5835;42.930;25.178;2022-08-21T15:44:15;26.60;99.90
11559;DHT22;5835;42.930;25.178;2022-08-21T15:46:43;26.50;99.90
11559;DHT22;5835;42.930;25.178;2022-08-21T15:49:11;26.50;99.90
11559;DHT22;5835;42.930;25.178;2022-08-21T15:51:40;26.50;99.90
11559;DHT22;5835;42.930;25.178;2022-08-21T15:54:08;26.50;99.90
11559;DHT22;5835;42.930;25.178;2022-08-21T15:56:37;26.50;99.90
11559;DHT22;5835;42.930;25.178;2022-08-21T15:59:14;26.30;99.90
11559;DHT22;5835;42.930;25.178;2022-08-21T16:01:42;26.20;99.90
11559;DHT22;5835;42.930;25.178;2022-08-21T16:04:11;26.10;99.90
11559;DHT22;5835;42.930;25.178;2022-08-21T16:06:43;26.00;99.90
11559;DHT22;5835;42.930;25.178;2022-08-21T16:09:11;26.00;99.90
11559;DHT22;5835;42.930;25.178;2022-08-21T16:11:39;25.90;99.90
11559;DHT22;5835;42.930;25.178;2022-08-21T16:14:07;25.70;99.90
11559;DHT22;5835;42.930;25.178;2022-08-21T16:16:35;25.70;99.90
11559;DHT22;5835;42.930;25.178;2022-08-21T16:19:03;25.60;99.90
11559;DHT22;5835;42.930;25.178;2022-08-21T16:21:31;25.60;99.90
11559;DHT22;5835;42.930;25.178;2022-08-21T16:24:00;25.60;99.90
11559;DHT22;5835;42.930;25.178;2022-08-21T16:26:29;25.60;99.90
11559;DHT22;5835;42.930;25.178;2022-08-21T16:28:58;25.50;99.90
11559;DHT22;5835;42.930;25.178;2022-08-21T16:31:28;25.50;99.90
11559;DHT22;5835;42.930;25.178;2022-08-21T16:33:56;25.40;99.90
11559;DHT22;5835;42.930;25.178;2022-08-21T16:36:24;25.30;99.90
11559;DHT22;5835;42.930;25.178;2022-08-21T16:38:52;25.30;99.90
11559;DHT22;5835;42.930;25.178;2022-08-21T16:41:23;25.40;99.90
11559;DHT22;5835;42.930;25.178;2022-08-21T16:43:51;25.30;99.90
11559;DHT22;5835;42.930;25.178;2022-08-21T16:46:20;25.20;99.90
11559;DHT22;5835;42.930;25.178;2022-08-21T16:48:48;25.10;99.90
11559;DHT22;5835;42.930;25.178;2022-08-21T16:51:16;25.00;99.90
11559;DHT22;5835;42.930;25.178;2022-08-21T16:53:43;24.90;99.90
11559;DHT22;5835;42.930;25.178;2022-08-21T16:56:13;24.90;99.90
11559;DHT22;5835;42.930;25.178;2022-08-21T16:58:46;24.80;99.90
11559;DHT22;5835;42.930;25.178;2022-08-21T17:01:17;24.70;99.90
11559;DHT22;5835;42.930;25.178;2022-08-21T17:03:47;24.60;99.90